California Valley, California
Current Conditions -  °F | °C
As of 7:51 AM on Monday 24 Nov 2014 (Local Time) from KSMX Reporting Station
Clear Clear  
Wind Chill: 62°   Ceiling: Unl
Heat Index: 62°   Visibility: 10mi
Dew Point: 33°   Wind: 10mph
Humidity: 34%   Direction: 340°NNW
Pressure: 30.27"   Gusts: NA
Location:  35.235°N, 120.021°W
Report Text: KSMX 241551Z 34009KT 10SM CLR 17/01 A3027 RMK AO2 SLP253 T01670006
Loading
Personal Weather Stations






























Interactive Weather Map New forecast layout! Learn more

10-Day Weather Forecast

Advertisements
Track Severe Weather on mobile